KMFR/MFR METAR and TAF weather

Enter ICAO airport designator
Station Type Date Time Source
KMFR METAR 2022/08/16 18:53 UTC NOAA

KMFR 161853Z 00000KT 10SM CLR 27/12 A2997 RMK AO2 SLP138 T02720117 $


Station Type Date Time Source
KMFR Decoded METAR 2022/08/16 18:53 UTC NOAA

ROGUE VALLEY INTERNATIONAL AIRPORT, OR, United States (KMFR) 42-23N 122-53W 396M
Aug 16, 2022 - 02:53 PM EDT / 2022.08.16 1853 UTC
Wind: Calm:0
Visibility: 10 mile(s):0
Sky conditions: clear
Temperature: 81.0 F (27.2 C)
Dew Point: 53.1 F (11.7 C)
Relative Humidity: 38%
Pressure (altimeter): 29.97 in. Hg (1014 hPa)
ob: KMFR 161853Z 00000KT 10SM CLR 27/12 A2997 RMK AO2 SLP138 T02720117
cycle: 19

Station Type Date Time Source
KMFR TAF 2022/08/16 18:42 UTC NOAA

TAF KMFR 161739Z 1618/1718 00000KT P6SM SKC
FM170000 32009KT P6SM SKC
FM170400 00000KT P6SM SKC

Example: see airport list